Columbia — WDD6400 — position and weather

sailwx.info

Track history (hours):
 
Tides and Currents Weather Stations Pressure Air Temp Water Temp Dewpoint Dewpoint Depression Visibility Wind Speed Wind Dir Waves Ship Positions

Columbia

Owner: OSG Ship Management Inc., Tampa, FL. More information available from US FCC via Universal Licensing System and Coast Guard Vessel Documentation Center.

Last reported at 2014-Nov-28 00:33 UTC. Time now 2014-Nov-28 01:24 UTC.
Position N 27°56' W 082°27'.

Length 194 m; draft 8.9 m.

Type: Towing. MMSI: 367172440.

Date/timePositionNaut miles runAvg speedWind from/ knotsBaromVisibWave heightAir tempDewpointWater temp
2014-Nov-28 00:33N 27°56' W 082°27'0 0.0
2014-Nov-27 23:33N 27°56' W 082°27'0 0.0
2014-Nov-27 22:33N 27°56' W 082°27'0 0.0
2014-Nov-27 21:33N 27°56' W 082°27'0 0.0
2014-Nov-27 20:33N 27°56' W 082°27'0 0.0
2014-Nov-27 19:33N 27°56' W 082°27'0 0.0
2014-Nov-27 18:33N 27°56' W 082°27'0 0.0
2014-Nov-27 17:33N 27°56' W 082°27'0 0.4
2014-Nov-27 16:33N 27°56' W 082°27'0 0.5
2014-Nov-27 15:33N 27°56' W 082°27'5 4.7
2014-Nov-27 14:33N 27°52' W 082°27'8 8.0
2014-Nov-27 13:34N 27°45' W 082°31'8 8.1
2014-Nov-27 12:33N 27°39' W 082°37'8 7.7
2014-Nov-27 11:33N 27°36' W 082°45'9 8.7
2014-Nov-27 10:34N 27°36' W 082°55'8 8.5
2014-Nov-27 09:34N 27°38' W 083°04'  
2014-Nov-24 08:16N 29°23' W 093°13'7 9.3
2014-Nov-24 07:31N 29°30' W 093°13'9 8.8
2014-Nov-24 06:33N 29°37' W 093°18'10 9.0
2014-Nov-24 05:26N 29°47' W 093°21'8 9.2
2014-Nov-24 04:33N 29°55' W 093°20'  
2014-Nov-18 21:27N 27°36' W 082°57'9 9.9
2014-Nov-18 20:33N 27°37' W 082°47'2 2.3
2014-Nov-18 19:32N 27°36' W 082°45'0 0.0
2014-Nov-18 18:31N 27°36' W 082°45'0 0.0
2014-Nov-18 17:31N 27°36' W 082°45'0 0.0
2014-Nov-18 16:25N 27°36' W 082°45'0 0.0
2014-Nov-18 15:25N 27°36' W 082°45'0 0.0
2014-Nov-18 14:31N 27°36' W 082°45'0 0.0
2014-Nov-18 13:31N 27°36' W 082°45'0 0.0
2014-Nov-18 12:31N 27°36' W 082°45'0 0.0
2014-Nov-18 11:31N 27°36' W 082°45'0 0.1
2014-Nov-18 10:33N 27°36' W 082°45'0 0.2
2014-Nov-18 09:33N 27°36' W 082°45'5 5.1
2014-Nov-18 08:33N 27°37' W 082°39'1110.9
2014-Nov-18 07:33N 27°46' W 082°31'9 9.1
2014-Nov-18 06:33N 27°54' W 082°26'2 2.5
2014-Nov-18 05:33N 27°56' W 082°27'0 0.0
2014-Nov-18 04:33N 27°56' W 082°27'0 0.0
2014-Nov-18 03:33N 27°56' W 082°27'0 0.0
2014-Nov-18 02:33N 27°56' W 082°27'0 0.0
2014-Nov-18 01:33N 27°56' W 082°27'0 0.0
2014-Nov-18 00:33N 27°56' W 082°27'  
Track history (hours):
 
Tides and Currents Weather Stations Pressure Air Temp Water Temp Dewpoint Dewpoint Depression Visibility Wind Speed Wind Dir Waves Ship Positions

Columbia

Owner: OSG Ship Management Inc., Tampa, FL. More information available from US FCC via Universal Licensing System and Coast Guard Vessel Documentation Center.

Last reported at 2014-Nov-28 00:33 UTC. Time now 2014-Nov-28 01:24 UTC.
Position N 27°56' W 082°27'.

Length 194 m; draft 8.9 m.

Type: Towing. MMSI: 367172440.

Date/timePositionNaut miles runAvg speedWind from/ knotsBaromVisibWave heightAir tempDewpointWater temp
2014-Nov-28 00:33N 27°56' W 082°27'0 0.0
2014-Nov-27 23:33N 27°56' W 082°27'0 0.0
2014-Nov-27 22:33N 27°56' W 082°27'0 0.0
2014-Nov-27 21:33N 27°56' W 082°27'0 0.0
2014-Nov-27 20:33N 27°56' W 082°27'0 0.0
2014-Nov-27 19:33N 27°56' W 082°27'0 0.0
2014-Nov-27 18:33N 27°56' W 082°27'0 0.0
2014-Nov-27 17:33N 27°56' W 082°27'0 0.4
2014-Nov-27 16:33N 27°56' W 082°27'0 0.5
2014-Nov-27 15:33N 27°56' W 082°27'5 4.7
2014-Nov-27 14:33N 27°52' W 082°27'8 8.0
2014-Nov-27 13:34N 27°45' W 082°31'8 8.1
2014-Nov-27 12:33N 27°39' W 082°37'8 7.7
2014-Nov-27 11:33N 27°36' W 082°45'9 8.7
2014-Nov-27 10:34N 27°36' W 082°55'8 8.5
2014-Nov-27 09:34N 27°38' W 083°04'  
2014-Nov-24 08:16N 29°23' W 093°13'7 9.3
2014-Nov-24 07:31N 29°30' W 093°13'9 8.8
2014-Nov-24 06:33N 29°37' W 093°18'10 9.0
2014-Nov-24 05:26N 29°47' W 093°21'8 9.2
2014-Nov-24 04:33N 29°55' W 093°20'  
2014-Nov-18 21:27N 27°36' W 082°57'9 9.9
2014-Nov-18 20:33N 27°37' W 082°47'2 2.3
2014-Nov-18 19:32N 27°36' W 082°45'0 0.0
2014-Nov-18 18:31N 27°36' W 082°45'0 0.0
2014-Nov-18 17:31N 27°36' W 082°45'0 0.0
2014-Nov-18 16:25N 27°36' W 082°45'0 0.0
2014-Nov-18 15:25N 27°36' W 082°45'0 0.0
2014-Nov-18 14:31N 27°36' W 082°45'0 0.0
2014-Nov-18 13:31N 27°36' W 082°45'0 0.0
2014-Nov-18 12:31N 27°36' W 082°45'0 0.0
2014-Nov-18 11:31N 27°36' W 082°45'0 0.1
2014-Nov-18 10:33N 27°36' W 082°45'0 0.2
2014-Nov-18 09:33N 27°36' W 082°45'5 5.1
2014-Nov-18 08:33N 27°37' W 082°39'1110.9
2014-Nov-18 07:33N 27°46' W 082°31'9 9.1
2014-Nov-18 06:33N 27°54' W 082°26'2 2.5
2014-Nov-18 05:33N 27°56' W 082°27'0 0.0
2014-Nov-18 04:33N 27°56' W 082°27'0 0.0
2014-Nov-18 03:33N 27°56' W 082°27'0 0.0
2014-Nov-18 02:33N 27°56' W 082°27'0 0.0
2014-Nov-18 01:33N 27°56' W 082°27'0 0.0
2014-Nov-18 00:33N 27°56' W 082°27'  

Dump ship's entire track history